Time;durP1;ratioP1;P1;durP2;ratioP2;P2;SDS_P1;SDS_P2;PMS_P1;PMS_P2;Temp;Humidity;BMP_temperature;BMP_pressure;BME280_temperature;BME280_humidity;BME280_pressure;Samples;Min_cycle;Max_cycle;Signal;HPM_P1;HPM_P2
2023/12/06 00:00:12;;;;;;;12.90;7.90;;;19.40;55.80;;;;;;4993125;28;20276;-70
2023/12/06 00:02:38;;;;;;;11.33;8.37;;;19.30;55.70;;;;;;4993156;28;20411;-69
2023/12/06 00:05:04;;;;;;;12.10;8.30;;;19.30;55.70;;;;;;4993092;28;20931;-68
2023/12/06 00:07:29;;;;;;;10.80;7.57;;;19.30;55.70;;;;;;4993149;28;20184;-69
2023/12/06 00:09:55;;;;;;;10.77;7.80;;;19.30;55.70;;;;;;4992953;28;20177;-69
2023/12/06 00:12:20;;;;;;;9.00;7.70;;;19.30;55.70;;;;;;4993003;28;20173;-69
2023/12/06 00:14:46;;;;;;;9.10;7.27;;;19.30;55.70;;;;;;4992834;28;21057;-68
2023/12/06 00:17:12;;;;;;;10.33;6.97;;;19.30;55.70;;;;;;4993123;28;20259;-69
2023/12/06 00:19:37;;;;;;;11.70;8.10;;;19.30;55.70;;;;;;4992848;28;20178;-69
2023/12/06 00:22:03;;;;;;;8.40;7.47;;;19.30;55.80;;;;;;4992883;28;20235;-68
2023/12/06 00:24:29;;;;;;;8.70;7.23;;;19.30;55.70;;;;;;4993122;28;20235;-69
2023/12/06 00:26:54;;;;;;;11.00;7.70;;;19.30;55.70;;;;;;4992719;28;20706;-69
2023/12/06 00:29:20;;;;;;;7.97;7.13;;;19.30;55.70;;;;;;4992686;28;20325;-69
2023/12/06 00:31:45;;;;;;;10.03;7.50;;;19.30;55.80;;;;;;4992654;28;20181;-69
2023/12/06 00:34:11;;;;;;;9.30;7.00;;;19.30;55.80;;;;;;4992619;28;20185;-69
2023/12/06 00:36:36;;;;;;;9.10;7.50;;;19.30;55.80;;;;;;4992490;28;20213;-69
2023/12/06 00:39:03;;;;;;;8.20;7.17;;;19.30;55.80;;;;;;4992537;28;20201;-69
2023/12/06 00:41:28;;;;;;;8.90;7.57;;;19.30;55.80;;;;;;4991286;28;20648;-69
2023/12/06 00:43:55;;;;;;;8.60;6.67;;;19.30;55.80;;;;;;4992414;28;20496;-69
2023/12/06 00:46:20;;;;;;;8.33;6.90;;;19.30;55.80;;;;;;4991373;28;20189;-70
2023/12/06 00:48:46;;;;;;;8.80;7.33;;;19.30;55.80;;;;;;4992396;28;20431;-69
2023/12/06 00:51:11;;;;;;;9.73;6.73;;;19.30;55.80;;;;;;4992530;28;20260;-69
2023/12/06 00:53:37;;;;;;;9.70;7.10;;;19.30;55.80;;;;;;4992307;28;21030;-69
2023/12/06 00:56:03;;;;;;;10.50;7.63;;;19.30;55.80;;;;;;4992076;28;20197;-70
2023/12/06 00:58:28;;;;;;;10.00;7.33;;;19.30;55.80;;;;;;4992359;28;20245;-69
2023/12/06 01:00:54;;;;;;;7.27;6.43;;;19.30;56.40;;;;;;4992138;28;20165;-69
2023/12/06 01:03:19;;;;;;;9.07;7.10;;;19.30;55.80;;;;;;4992122;28;20173;-68
2023/12/06 01:05:45;;;;;;;9.83;6.83;;;19.30;55.80;;;;;;4991818;28;20189;-69
2023/12/06 01:08:10;;;;;;;8.80;6.90;;;19.30;55.80;;;;;;4992013;28;20231;-69
2023/12/06 01:10:36;;;;;;;7.20;6.50;;;19.30;55.80;;;;;;4992025;28;20611;-69
2023/12/06 01:13:02;;;;;;;8.17;6.20;;;19.30;55.80;;;;;;4991989;28;20184;-69
2023/12/06 01:15:27;;;;;;;8.20;6.63;;;19.30;55.80;;;;;;4992137;28;20224;-70
2023/12/06 01:17:53;;;;;;;11.20;6.77;;;19.30;55.80;;;;;;4991792;28;20690;-69
2023/12/06 01:20:18;;;;;;;10.20;6.93;;;19.30;55.80;;;;;;4990545;28;20185;-69
2023/12/06 01:22:44;;;;;;;9.00;6.90;;;19.30;56.40;;;;;;4991832;28;20173;-68
2023/12/06 01:25:10;;;;;;;9.20;6.90;;;19.30;55.90;;;;;;4991565;28;20212;-69
2023/12/06 01:27:37;;;;;;;8.57;6.50;;;19.30;55.90;;;;;;4992007;28;20661;-69
2023/12/06 01:30:04;;;;;;;7.60;6.50;;;19.30;55.90;;;;;;4991663;28;20833;-68
2023/12/06 01:32:30;;;;;;;11.67;6.63;;;19.30;55.90;;;;;;4991545;28;20416;-67
2023/12/06 01:34:55;;;;;;;8.43;6.47;;;19.30;55.90;;;;;;4991619;28;20474;-68
2023/12/06 01:37:21;;;;;;;8.37;6.30;;;19.30;55.90;;;;;;4991541;28;20536;-69
2023/12/06 01:39:47;;;;;;;7.70;6.50;;;19.30;55.90;;;;;;4991395;28;20181;-68
2023/12/06 01:42:13;;;;;;;8.73;6.70;;;19.30;55.90;;;;;;4990546;28;20203;-68
2023/12/06 01:44:38;;;;;;;6.97;6.27;;;19.30;55.90;;;;;;4991467;28;20775;-69
2023/12/06 01:47:05;;;;;;;8.60;5.90;;;19.30;55.90;;;;;;4991224;28;20580;-68
2023/12/06 01:49:31;;;;;;;7.30;5.93;;;19.30;55.80;;;;;;4990363;28;20169;-69
2023/12/06 01:51:57;;;;;;;8.53;6.60;;;19.30;55.90;;;;;;4991149;28;20413;-69
2023/12/06 01:54:23;;;;;;;11.00;6.33;;;19.30;55.90;;;;;;4991147;28;20925;-68
2023/12/06 01:56:48;;;;;;;8.17;6.53;;;19.30;55.90;;;;;;4990875;28;20232;-68
2023/12/06 01:59:14;;;;;;;8.73;6.80;;;19.30;55.90;;;;;;4991064;28;20280;-68
2023/12/06 02:01:40;;;;;;;8.07;6.30;;;19.30;55.90;;;;;;4991171;28;20220;-69
2023/12/06 02:04:06;;;;;;;6.57;5.70;;;19.30;55.90;;;;;;4991251;28;20223;-69
2023/12/06 02:06:32;;;;;;;10.10;5.97;;;19.30;55.90;;;;;;4991037;28;20966;-68
2023/12/06 02:08:59;;;;;;;7.83;6.60;;;19.30;55.90;;;;;;4991158;28;20185;-68
2023/12/06 02:11:25;;;;;;;9.60;6.43;;;19.30;55.90;;;;;;4990956;28;20420;-68
2023/12/06 02:13:50;;;;;;;7.97;6.67;;;19.30;55.90;;;;;;4991093;28;20789;-69
2023/12/06 02:16:17;;;;;;;8.83;6.60;;;19.30;55.90;;;;;;4991002;28;20200;-69
2023/12/06 02:18:43;;;;;;;8.47;6.27;;;19.30;55.90;;;;;;4989773;28;20908;-68
2023/12/06 02:21:09;;;;;;;7.10;5.30;;;19.30;55.90;;;;;;4991060;28;20921;-69
2023/12/06 02:23:38;;;;;;;6.00;5.33;;;19.30;55.90;;;;;;4990874;28;20416;-69
2023/12/06 02:26:05;;;;;;;7.57;5.93;;;19.30;55.90;;;;;;4990759;28;20975;-68
2023/12/06 02:28:30;;;;;;;6.90;5.63;;;19.30;55.90;;;;;;4990781;28;20507;-69
2023/12/06 02:30:56;;;;;;;7.40;5.77;;;19.30;55.90;;;;;;4990814;28;20522;-68
2023/12/06 02:33:26;;;;;;;6.77;5.73;;;19.30;55.90;;;;;;4990868;28;20173;-69
2023/12/06 02:35:56;;;;;;;6.87;5.10;;;19.30;55.90;;;;;;4990951;28;20694;-68
2023/12/06 02:38:22;;;;;;;8.33;5.93;;;19.30;55.90;;;;;;4990998;28;20594;-69
2023/12/06 02:40:50;;;;;;;6.23;5.20;;;19.30;55.90;;;;;;4990703;28;20502;-69
2023/12/06 02:43:16;;;;;;;7.60;4.87;;;19.30;55.90;;;;;;4990675;28;20423;-68
2023/12/06 02:45:43;;;;;;;8.13;6.17;;;19.30;55.90;;;;;;4990718;28;20440;-69
2023/12/06 02:48:09;;;;;;;7.70;5.90;;;19.30;55.90;;;;;;4990573;28;20551;-68
2023/12/06 02:50:34;;;;;;;7.80;6.07;;;19.30;55.90;;;;;;4990538;28;20503;-66
2023/12/06 02:53:00;;;;;;;10.20;6.83;;;19.30;55.90;;;;;;4990574;28;20986;-69
2023/12/06 02:55:26;;;;;;;7.37;5.77;;;19.30;55.90;;;;;;4990680;28;20200;-69
2023/12/06 02:57:51;;;;;;;7.50;5.30;;;19.30;55.90;;;;;;4990642;28;20658;-69
2023/12/06 03:00:17;;;;;;;7.83;5.60;;;19.30;55.90;;;;;;4990588;28;20184;-69
2023/12/06 03:02:43;;;;;;;8.10;5.67;;;19.30;56.00;;;;;;4990454;28;20716;-69
2023/12/06 03:05:08;;;;;;;8.07;5.63;;;19.30;56.00;;;;;;4989066;28;20458;-69
2023/12/06 03:07:34;;;;;;;6.03;5.17;;;19.30;55.90;;;;;;4990379;28;20181;-69
2023/12/06 03:10:00;;;;;;;6.57;5.30;;;19.30;56.00;;;;;;4992857;28;20640;-69
2023/12/06 03:12:26;;;;;;;6.80;5.33;;;19.30;55.90;;;;;;4994028;28;20187;-69
2023/12/06 03:14:51;;;;;;;6.70;5.10;;;19.30;55.90;;;;;;4993942;28;20416;-69
2023/12/06 03:17:17;;;;;;;6.23;5.63;;;19.30;55.90;;;;;;4993896;28;20177;-69
2023/12/06 03:19:42;;;;;;;5.50;4.17;;;19.30;55.90;;;;;;4993941;28;20176;-69
2023/12/06 03:22:08;;;;;;;7.20;4.90;;;19.30;55.90;;;;;;4993958;28;20177;-69
2023/12/06 03:24:34;;;;;;;7.70;5.57;;;19.30;55.90;;;;;;4994021;28;20208;-69
2023/12/06 03:26:59;;;;;;;7.07;5.67;;;19.30;55.90;;;;;;4993805;28;20164;-69
2023/12/06 03:29:25;;;;;;;5.50;4.73;;;19.30;55.90;;;;;;4993793;28;20177;-69
2023/12/06 03:31:50;;;;;;;6.17;5.07;;;19.30;56.00;;;;;;4993692;28;20259;-69
2023/12/06 03:34:16;;;;;;;7.00;5.30;;;19.30;56.50;;;;;;4993619;28;20185;-69
2023/12/06 03:36:41;;;;;;;6.47;4.37;;;19.30;55.90;;;;;;4993621;28;20204;-69
2023/12/06 03:39:07;;;;;;;6.60;5.67;;;19.30;55.90;;;;;;4993695;28;20205;-69
2023/12/06 03:41:33;;;;;;;8.00;5.63;;;19.30;55.90;;;;;;4993570;28;20161;-69
2023/12/06 03:43:58;;;;;;;6.77;5.30;;;19.30;56.00;;;;;;4992218;28;20667;-69
2023/12/06 03:46:24;;;;;;;6.70;5.30;;;19.30;56.00;;;;;;4993356;28;20609;-69
2023/12/06 03:48:49;;;;;;;5.70;4.70;;;19.30;56.00;;;;;;4993452;28;20209;-69
2023/12/06 03:51:15;;;;;;;7.80;4.57;;;19.30;56.10;;;;;;4993253;28;20177;-69
2023/12/06 03:53:41;;;;;;;6.47;4.50;;;19.30;56.00;;;;;;4993387;28;20667;-70
2023/12/06 03:56:07;;;;;;;7.53;5.27;;;19.30;56.00;;;;;;4991940;28;20252;-69
2023/12/06 03:58:34;;;;;;;6.03;4.60;;;19.20;55.90;;;;;;4998051;28;21040;-69
2023/12/06 04:01:00;;;;;;;5.97;4.47;;;19.30;56.00;;;;;;5011536;28;20517;-69
2023/12/06 04:03:26;;;;;;;10.77;5.53;;;19.30;56.00;;;;;;5012676;28;20912;-69
2023/12/06 04:05:51;;;;;;;6.07;4.70;;;19.30;56.00;;;;;;5012509;28;20519;-69
2023/12/06 04:08:17;;;;;;;4.60;4.17;;;19.30;56.00;;;;;;5012623;28;20184;-69
2023/12/06 04:10:42;;;;;;;4.70;3.87;;;19.30;55.90;;;;;;5012459;28;20281;-69
2023/12/06 04:13:08;;;;;;;6.43;4.97;;;19.30;55.90;;;;;;5012512;28;20181;-69
2023/12/06 04:15:33;;;;;;;7.80;4.87;;;19.30;55.90;;;;;;5012689;28;20750;-69
2023/12/06 04:17:59;;;;;;;5.63;4.40;;;19.30;56.00;;;;;;5012298;28;20581;-69
2023/12/06 04:20:25;;;;;;;6.70;4.93;;;19.30;55.90;;;;;;5012268;28;20187;-69
2023/12/06 04:22:50;;;;;;;6.30;4.40;;;19.30;56.00;;;;;;5012464;28;20291;-69
2023/12/06 04:25:16;;;;;;;6.77;4.33;;;19.30;56.00;;;;;;5010732;28;20718;-70
2023/12/06 04:27:42;;;;;;;6.27;4.37;;;19.30;56.00;;;;;;5012243;28;20176;-69
2023/12/06 04:30:10;;;;;;;5.30;4.40;;;19.30;56.00;;;;;;5012555;28;20295;-69
2023/12/06 04:32:36;;;;;;;5.67;4.70;;;19.30;56.00;;;;;;5012081;28;20419;-69
2023/12/06 04:35:02;;;;;;;5.90;5.30;;;19.30;56.00;;;;;;5011955;28;20465;-69
2023/12/06 04:37:28;;;;;;;6.73;4.30;;;19.30;56.00;;;;;;5011957;28;20207;-69
2023/12/06 04:39:53;;;;;;;5.90;4.47;;;19.30;56.00;;;;;;5011987;28;20407;-69
2023/12/06 04:42:19;;;;;;;6.03;4.20;;;19.30;56.00;;;;;;5011887;28;20404;-69
2023/12/06 04:44:44;;;;;;;6.90;5.13;;;19.30;56.00;;;;;;5012131;28;20307;-70
2023/12/06 04:47:10;;;;;;;5.93;4.73;;;19.30;56.00;;;;;;5012129;28;20173;-69
2023/12/06 04:49:35;;;;;;;5.87;4.20;;;19.30;56.00;;;;;;5011887;28;20168;-69
2023/12/06 04:52:01;;;;;;;5.03;4.17;;;19.30;56.00;;;;;;5011697;28;20176;-69
2023/12/06 04:54:27;;;;;;;4.50;3.90;;;19.30;55.90;;;;;;5011762;28;20557;-69
2023/12/06 04:56:53;;;;;;;5.97;4.27;;;19.30;55.90;;;;;;5011739;28;20246;-69
2023/12/06 04:59:18;;;;;;;6.50;4.37;;;19.30;56.00;;;;;;5011486;28;20200;-69
2023/12/06 05:01:44;;;;;;;5.20;3.70;;;19.20;55.90;;;;;;5011524;28;20259;-69
2023/12/06 05:04:10;;;;;;;5.83;4.13;;;19.20;55.90;;;;;;5011575;28;20204;-69
2023/12/06 05:06:36;;;;;;;5.50;3.80;;;19.20;55.80;;;;;;5011507;28;20203;-69
2023/12/06 05:09:02;;;;;;;5.40;4.23;;;19.20;55.90;;;;;;5011548;28;20210;-69
2023/12/06 05:11:27;;;;;;;8.33;5.30;;;19.20;55.80;;;;;;5011437;28;20435;-69
2023/12/06 05:13:53;;;;;;;6.50;3.63;;;19.20;55.80;;;;;;5011373;28;20176;-69
2023/12/06 05:16:18;;;;;;;4.80;3.70;;;19.20;55.80;;;;;;5011287;28;20226;-69
2023/12/06 05:18:44;;;;;;;4.30;3.90;;;19.20;55.80;;;;;;5009907;28;20204;-69
2023/12/06 05:21:09;;;;;;;3.50;3.07;;;19.20;55.80;;;;;;5011272;28;20169;-69
2023/12/06 05:23:35;;;;;;;5.77;3.93;;;19.20;55.80;;;;;;5011268;28;20215;-69
2023/12/06 05:26:01;;;;;;;5.70;4.30;;;19.20;55.90;;;;;;5010913;28;20240;-69
2023/12/06 05:28:27;;;;;;;5.23;4.07;;;19.20;55.90;;;;;;5011200;28;20180;-70
2023/12/06 05:30:52;;;;;;;4.77;3.57;;;19.20;55.90;;;;;;5011049;28;20423;-69
2023/12/06 05:33:18;;;;;;;4.80;3.80;;;19.20;55.90;;;;;;5010489;28;20179;-69
2023/12/06 05:35:46;;;;;;;4.83;3.80;;;19.20;55.70;;;;;;5010787;28;20643;-68
2023/12/06 05:38:11;;;;;;;3.90;3.50;;;19.20;55.20;;;;;;5011108;28;20627;-69
2023/12/06 05:40:37;;;;;;;4.10;3.60;;;19.20;55.20;;;;;;5010989;28;20538;-69
2023/12/06 05:43:03;;;;;;;5.00;4.50;;;19.10;55.30;;;;;;5010950;28;20173;-69
2023/12/06 05:45:29;;;;;;;4.33;3.70;;;19.10;55.40;;;;;;5009593;28;20204;-69
2023/12/06 05:47:54;;;;;;;4.07;3.47;;;19.10;55.60;;;;;;5010758;28;20172;-69
2023/12/06 05:50:20;;;;;;;3.80;3.13;;;19.10;55.60;;;;;;5010708;28;20433;-69
2023/12/06 05:52:46;;;;;;;4.83;3.80;;;19.10;55.70;;;;;;5010772;28;20184;-69
2023/12/06 05:55:11;;;;;;;4.50;3.27;;;19.10;55.70;;;;;;5010685;28;20204;-69
2023/12/06 05:57:37;;;;;;;5.07;3.80;;;19.10;55.70;;;;;;5010555;28;20683;-69
2023/12/06 06:00:05;;;;;;;4.07;3.40;;;19.10;55.70;;;;;;5010626;28;20164;-69
2023/12/06 06:02:31;;;;;;;3.77;2.40;;;19.10;55.70;;;;;;5009326;28;20168;-69
2023/12/06 06:04:57;;;;;;;4.43;3.50;;;19.10;55.70;;;;;;5010224;28;20431;-69
2023/12/06 06:07:24;;;;;;;4.90;3.20;;;19.10;55.70;;;;;;5010460;28;20180;-69
2023/12/06 06:09:50;;;;;;;3.57;2.97;;;19.20;55.80;;;;;;5010524;28;21148;-69
2023/12/06 06:12:15;;;;;;;3.70;2.97;;;19.10;55.70;;;;;;5010521;28;20458;-69
2023/12/06 06:14:41;;;;;;;4.00;3.30;;;19.20;55.80;;;;;;5010268;28;20168;-68
2023/12/06 06:17:07;;;;;;;8.23;3.60;;;19.10;55.70;;;;;;5010209;28;20735;-68
2023/12/06 06:19:32;;;;;;;4.20;3.03;;;19.20;55.80;;;;;;5008836;28;20428;-69
2023/12/06 06:21:58;;;;;;;5.33;3.67;;;19.20;55.80;;;;;;5010154;28;20706;-68
2023/12/06 06:24:23;;;;;;;4.20;3.37;;;19.20;55.80;;;;;;5010339;28;20184;-69
2023/12/06 06:26:49;;;;;;;3.63;2.83;;;19.20;55.70;;;;;;5010389;28;20219;-70
2023/12/06 06:29:15;;;;;;;3.70;2.77;;;19.20;55.80;;;;;;5010201;28;20592;-69
2023/12/06 06:31:40;;;;;;;4.00;3.13;;;19.20;55.80;;;;;;5010423;28;20195;-66
2023/12/06 06:34:06;;;;;;;4.10;3.70;;;19.20;55.80;;;;;;5010094;28;20211;-66
2023/12/06 06:36:31;;;;;;;3.40;2.73;;;19.20;55.80;;;;;;5010093;28;20656;-69
2023/12/06 06:38:57;;;;;;;4.27;2.87;;;19.20;55.80;;;;;;5010253;28;20215;-67
2023/12/06 06:41:26;;;;;;;4.20;2.87;;;19.20;55.80;;;;;;5010048;28;20696;-70
2023/12/06 06:43:52;;;;;;;3.10;2.43;;;19.20;55.80;;;;;;5009417;28;20669;-69
2023/12/06 06:46:18;;;;;;;2.50;2.30;;;19.20;55.80;;;;;;5014149;28;20466;-69
2023/12/06 06:48:43;;;;;;;4.50;3.10;;;19.30;55.90;;;;;;5013854;28;20263;-69
2023/12/06 06:51:09;;;;;;;2.70;2.40;;;19.30;55.80;;;;;;5014180;28;20177;-69
2023/12/06 06:53:35;;;;;;;3.37;2.53;;;19.30;55.80;;;;;;5012717;28;20184;-69
2023/12/06 06:56:02;;;;;;;4.90;2.70;;;19.30;55.80;;;;;;5013815;28;20196;-69
2023/12/06 06:58:27;;;;;;;3.47;2.43;;;19.30;55.80;;;;;;5013678;28;20463;-69
2023/12/06 07:00:53;;;;;;;3.57;2.73;;;19.30;55.80;;;;;;5013971;28;20416;-67
2023/12/06 07:03:19;;;;;;;3.33;2.20;;;19.30;55.80;;;;;;5013667;28;20196;-67
2023/12/06 07:05:45;;;;;;;3.73;3.20;;;19.30;55.80;;;;;;5013886;28;20517;-68
2023/12/06 07:08:10;;;;;;;2.83;2.50;;;19.30;55.80;;;;;;5013622;28;20180;-67
2023/12/06 07:10:37;;;;;;;4.20;3.03;;;19.40;55.80;;;;;;5013740;28;20180;-68
2023/12/06 07:13:03;;;;;;;3.77;2.90;;;19.40;55.80;;;;;;5013751;28;20188;-68
2023/12/06 07:15:28;;;;;;;3.90;2.70;;;19.40;55.80;;;;;;5013360;28;20439;-68
2023/12/06 07:17:54;;;;;;;2.73;1.93;;;19.40;55.80;;;;;;5013340;28;20205;-68
2023/12/06 07:20:20;;;;;;;3.27;2.60;;;19.40;55.80;;;;;;5013392;28;20173;-69
2023/12/06 07:22:45;;;;;;;2.80;2.47;;;19.40;55.80;;;;;;5013372;28;20203;-68
2023/12/06 07:25:15;;;;;;;3.63;2.30;;;19.40;55.80;;;;;;5013142;28;20204;-68
2023/12/06 07:27:44;;;;;;;3.40;2.77;;;19.40;55.80;;;;;;5013395;28;20176;-69
2023/12/06 07:30:16;;;;;;;2.80;2.33;;;19.40;55.80;;;;;;5011796;28;21116;-68
2023/12/06 07:32:42;;;;;;;3.60;2.63;;;19.40;55.70;;;;;;5013404;28;20400;-68
2023/12/06 07:35:08;;;;;;;2.83;2.33;;;19.40;55.80;;;;;;5013082;28;20431;-68
2023/12/06 07:37:34;;;;;;;3.70;2.23;;;19.40;55.70;;;;;;5011616;28;20208;-67
2023/12/06 07:39:59;;;;;;;2.53;2.10;;;19.40;55.70;;;;;;5013559;28;20415;-69
2023/12/06 07:42:25;;;;;;;2.27;2.00;;;19.40;55.70;;;;;;5011961;28;20180;-67
2023/12/06 07:44:51;;;;;;;2.60;2.20;;;19.40;55.70;;;;;;5012839;28;20180;-68
2023/12/06 07:47:16;;;;;;;2.97;2.00;;;19.50;55.80;;;;;;5012966;28;20185;-68
2023/12/06 07:49:42;;;;;;;2.57;2.30;;;19.50;55.80;;;;;;5012820;28;20203;-68
2023/12/06 07:52:07;;;;;;;4.40;3.07;;;19.50;55.80;;;;;;5012911;28;20231;-69
2023/12/06 07:54:33;;;;;;;3.20;2.67;;;19.50;55.80;;;;;;5012269;28;20204;-68
2023/12/06 07:56:59;;;;;;;2.60;2.17;;;19.50;55.80;;;;;;5011310;28;20177;-67
2023/12/06 07:59:25;;;;;;;3.40;2.67;;;19.50;55.80;;;;;;5012653;28;20204;-68
2023/12/06 08:01:50;;;;;;;2.40;2.10;;;19.50;55.80;;;;;;5012716;28;20176;-69
2023/12/06 08:04:16;;;;;;;3.03;2.57;;;19.50;55.70;;;;;;5011271;28;20782;-69
2023/12/06 08:06:41;;;;;;;2.50;2.10;;;19.50;55.70;;;;;;5012369;28;20198;-69
2023/12/06 08:09:11;;;;;;;2.77;2.37;;;19.50;55.70;;;;;;5012479;28;20199;-69
2023/12/06 08:11:37;;;;;;;3.07;2.00;;;19.50;55.70;;;;;;5012640;28;20191;-68
2023/12/06 08:14:03;;;;;;;2.87;1.97;;;19.50;55.70;;;;;;5012563;28;20462;-69
2023/12/06 08:16:28;;;;;;;2.57;2.00;;;19.50;55.70;;;;;;5012456;28;20447;-69
2023/12/06 08:18:54;;;;;;;3.20;2.30;;;19.50;55.80;;;;;;5012193;28;20218;-69
2023/12/06 08:21:19;;;;;;;2.77;2.53;;;19.50;55.70;;;;;;5012165;28;20172;-69
2023/12/06 08:23:45;;;;;;;2.40;1.97;;;19.50;55.80;;;;;;5012151;28;20207;-69
2023/12/06 08:26:10;;;;;;;2.33;2.13;;;19.50;55.80;;;;;;5011969;28;20211;-68
2023/12/06 08:28:36;;;;;;;2.63;2.20;;;19.50;55.70;;;;;;5012057;28;20184;-69
2023/12/06 08:31:02;;;;;;;3.10;2.20;;;19.50;55.80;;;;;;5012093;28;20180;-69
2023/12/06 08:33:28;;;;;;;2.93;2.10;;;19.50;55.80;;;;;;5011975;28;20207;-69
2023/12/06 08:35:54;;;;;;;2.20;2.00;;;19.50;55.70;;;;;;5012146;28;20462;-69
2023/12/06 08:38:20;;;;;;;2.50;2.00;;;19.50;55.80;;;;;;5012088;28;20462;-68
2023/12/06 08:40:46;;;;;;;3.37;2.47;;;19.50;55.70;;;;;;5011882;28;20525;-69
2023/12/06 08:43:12;;;;;;;4.07;2.43;;;19.50;55.70;;;;;;5011786;28;20503;-69
2023/12/06 08:45:37;;;;;;;2.20;1.90;;;19.50;55.80;;;;;;5010260;28;20279;-68
2023/12/06 08:48:04;;;;;;;2.77;1.90;;;19.50;56.30;;;;;;5011752;28;20183;-69
2023/12/06 08:50:29;;;;;;;4.30;2.67;;;19.50;55.70;;;;;;5011723;28;20164;-69
2023/12/06 08:52:55;;;;;;;2.67;2.37;;;19.50;55.70;;;;;;5011692;28;20832;-68
2023/12/06 08:55:20;;;;;;;2.20;1.83;;;19.50;55.70;;;;;;5011520;28;20200;-69
2023/12/06 08:57:46;;;;;;;3.70;2.60;;;19.50;55.80;;;;;;5011457;28;20196;-69
2023/12/06 09:00:12;;;;;;;3.17;2.10;;;19.50;55.70;;;;;;5011589;28;20168;-68
2023/12/06 09:02:39;;;;;;;2.90;2.37;;;19.50;55.70;;;;;;5011613;28;20570;-69
2023/12/06 09:05:05;;;;;;;2.70;2.20;;;19.50;55.70;;;;;;5011469;28;20462;-69
2023/12/06 09:07:31;;;;;;;3.10;2.20;;;19.50;55.70;;;;;;5010468;28;20403;-69
2023/12/06 09:09:57;;;;;;;4.00;2.50;;;19.50;55.80;;;;;;5011383;28;20897;-68
2023/12/06 09:12:22;;;;;;;3.30;2.33;;;19.50;55.70;;;;;;5011246;28;20188;-68
2023/12/06 09:14:48;;;;;;;3.27;1.87;;;19.50;55.80;;;;;;5011199;28;20655;-68
2023/12/06 09:17:13;;;;;;;2.70;2.50;;;19.50;55.70;;;;;;5011254;28;20203;-68
2023/12/06 09:19:39;;;;;;;2.40;2.17;;;19.50;55.70;;;;;;5011192;28;20172;-68
2023/12/06 09:22:05;;;;;;;2.40;2.10;;;19.50;55.70;;;;;;5011128;28;20601;-68
2023/12/06 09:24:31;;;;;;;2.67;1.70;;;19.50;55.70;;;;;;5011349;28;20208;-68
2023/12/06 09:26:56;;;;;;;2.50;1.70;;;19.50;55.80;;;;;;5011023;28;20196;-69
2023/12/06 09:29:22;;;;;;;2.47;2.23;;;19.50;55.80;;;;;;5011252;28;20233;-69
2023/12/06 09:31:48;;;;;;;3.20;2.00;;;19.50;55.80;;;;;;5011191;28;20211;-68
2023/12/06 09:34:13;;;;;;;2.33;1.97;;;19.50;55.80;;;;;;5010894;28;20180;-69
2023/12/06 09:36:39;;;;;;;3.47;2.30;;;19.50;55.80;;;;;;5011074;28;20489;-69
2023/12/06 09:39:05;;;;;;;2.73;2.10;;;19.50;55.80;;;;;;5010785;28;20674;-68
2023/12/06 09:41:34;;;;;;;2.87;1.80;;;19.50;55.80;;;;;;5011077;28;20263;-68
2023/12/06 09:44:00;;;;;;;2.80;1.93;;;19.50;55.80;;;;;;5010766;28;20173;-68
2023/12/06 09:46:26;;;;;;;2.60;2.10;;;19.50;55.80;;;;;;5010887;28;20463;-68
2023/12/06 09:48:52;;;;;;;2.67;2.10;;;19.50;55.80;;;;;;5010736;28;20506;-69
2023/12/06 09:51:19;;;;;;;2.27;2.07;;;19.50;56.30;;;;;;5010705;28;20579;-69
2023/12/06 09:53:45;;;;;;;3.63;2.03;;;19.50;55.80;;;;;;5010601;28;20864;-69
2023/12/06 09:56:13;;;;;;;1.80;1.50;;;19.50;55.80;;;;;;5010528;28;20466;-68
2023/12/06 09:58:39;;;;;;;2.00;1.80;;;19.50;55.80;;;;;;5010459;28;20451;-69
2023/12/06 10:01:04;;;;;;;2.37;1.70;;;19.50;55.80;;;;;;5010581;28;20413;-69
2023/12/06 10:03:31;;;;;;;2.17;1.97;;;19.50;55.80;;;;;;5010592;28;20255;-68
2023/12/06 10:05:59;;;;;;;1.93;1.60;;;19.50;55.90;;;;;;5010513;28;20677;-68
2023/12/06 10:08:25;;;;;;;2.17;1.93;;;19.50;55.80;;;;;;5010525;28;20408;-68
2023/12/06 10:11:00;;;;;;;2.60;1.90;;;19.50;55.80;;;;;;5010511;28;20411;-68
2023/12/06 10:13:37;;;;;;;2.33;1.73;;;19.50;55.80;;;;;;5010498;28;20411;-69
2023/12/06 10:16:15;;;;;;;2.80;1.87;;;19.50;55.80;;;;;;5008956;28;20973;-69
2023/12/06 10:18:41;;;;;;;2.30;1.80;;;19.50;55.80;;;;;;5010121;28;20481;-69
2023/12/06 10:21:08;;;;;;;2.70;1.70;;;19.50;55.80;;;;;;5010778;28;20818;-68
2023/12/06 10:23:34;;;;;;;1.93;1.50;;;19.50;55.80;;;;;;5010345;28;20403;-69
2023/12/06 10:26:01;;;;;;;2.07;1.87;;;19.50;55.80;;;;;;5008739;28;20908;-69
2023/12/06 10:28:26;;;;;;;2.20;1.60;;;19.50;55.80;;;;;;5009126;28;20427;-68
2023/12/06 10:31:03;;;;;;;1.63;1.40;;;19.50;55.80;;;;;;5010274;28;20951;-69
2023/12/06 10:33:32;;;;;;;1.90;1.50;;;19.60;55.90;;;;;;5010348;28;20215;-69
2023/12/06 10:36:00;;;;;;;1.80;1.60;;;19.60;55.90;;;;;;5010217;28;20964;-68
2023/12/06 10:38:27;;;;;;;1.53;1.43;;;19.50;55.80;;;;;;5010192;28;20458;-68
2023/12/06 10:40:54;;;;;;;1.73;1.60;;;19.60;55.90;;;;;;5010237;28;20832;-68
2023/12/06 10:43:22;;;;;;;1.87;1.77;;;19.60;55.90;;;;;;5010486;28;20411;-68
2023/12/06 10:45:50;;;;;;;2.10;1.87;;;19.60;55.90;;;;;;5010136;28;20431;-68
2023/12/06 10:48:17;;;;;;;1.87;1.53;;;19.60;55.90;;;;;;5010212;28;20410;-68
2023/12/06 10:50:43;;;;;;;2.00;1.50;;;19.60;55.90;;;;;;5010330;28;20415;-68
2023/12/06 10:53:13;;;;;;;1.60;1.50;;;19.60;55.90;;;;;;5010213;28;20425;-69
2023/12/06 10:55:41;;;;;;;1.93;1.77;;;19.60;55.90;;;;;;5010003;28;20204;-69
2023/12/06 10:58:07;;;;;;;2.20;1.60;;;19.60;55.90;;;;;;5010052;28;21024;-68
2023/12/06 11:00:33;;;;;;;2.00;1.40;;;19.60;55.90;;;;;;5010022;28;20411;-68
2023/12/06 11:02:59;;;;;;;2.27;1.93;;;19.60;55.90;;;;;;5009971;28;20422;-69
2023/12/06 11:05:29;;;;;;;1.77;1.50;;;19.60;56.40;;;;;;5009968;28;20427;-69
2023/12/06 11:08:23;;;;;;;1.87;1.60;;;19.60;55.90;;;;;;5010008;28;20659;-68
2023/12/06 11:11:05;;;;;;;2.03;1.43;;;19.60;55.90;;;;;;5009999;28;20414;-68
2023/12/06 11:13:58;;;;;;;2.40;1.73;;;19.60;55.90;;;;;;5009926;28;20391;-68
2023/12/06 11:16:53;;;;;;;2.27;1.57;;;19.60;55.90;;;;;;5008569;28;20942;-69
2023/12/06 11:19:20;;;;;;;1.60;1.30;;;19.60;56.00;;;;;;5009804;28;20458;-68
2023/12/06 11:21:46;;;;;;;2.00;1.77;;;19.60;56.00;;;;;;5009824;28;20450;-68
2023/12/06 11:24:12;;;;;;;2.10;1.40;;;19.60;56.00;;;;;;5010128;28;20946;-68
2023/12/06 11:26:38;;;;;;;3.53;1.67;;;19.60;56.00;;;;;;5009633;28;20465;-69
2023/12/06 11:29:04;;;;;;;2.20;1.67;;;19.60;55.90;;;;;;5009767;28;20257;-68
2023/12/06 11:31:37;;;;;;;2.30;1.80;;;19.60;55.90;;;;;;5012891;28;20179;-68
2023/12/06 11:34:09;;;;;;;1.97;1.63;;;19.60;55.90;;;;;;5013236;28;20411;-68
2023/12/06 11:36:35;;;;;;;1.60;1.30;;;19.60;55.90;;;;;;5013087;28;20423;-68
2023/12/06 11:39:13;;;;;;;2.70;1.60;;;19.60;55.90;;;;;;5013129;28;20458;-68
2023/12/06 11:41:48;;;;;;;3.10;1.73;;;19.60;55.90;;;;;;5013145;28;20407;-68
2023/12/06 11:44:16;;;;;;;1.83;1.40;;;19.60;55.90;;;;;;5013142;28;20390;-69
2023/12/06 11:46:55;;;;;;;2.13;1.63;;;19.60;56.00;;;;;;5011524;28;20816;-69
2023/12/06 11:49:24;;;;;;;3.10;1.87;;;19.60;55.90;;;;;;5013203;28;20450;-68
2023/12/06 11:52:00;;;;;;;1.50;1.40;;;19.50;55.90;;;;;;5012910;28;20418;-68
2023/12/06 11:54:27;;;;;;;2.43;1.57;;;19.60;55.90;;;;;;5013037;28;20419;-68
2023/12/06 11:57:05;;;;;;;1.90;1.40;;;19.60;55.90;;;;;;5012925;28;20807;-68
2023/12/06 11:59:32;;;;;;;3.80;1.57;;;19.60;55.90;;;;;;5012943;28;20454;-68
2023/12/06 12:01:58;;;;;;;3.90;1.70;;;19.60;55.90;;;;;;5012712;28;20403;-68
2023/12/06 12:04:24;;;;;;;2.03;1.80;;;19.60;55.90;;;;;;5011359;28;20412;-68
2023/12/06 12:06:50;;;;;;;1.70;1.53;;;19.60;55.90;;;;;;5012432;28;20210;-67
2023/12/06 12:09:16;;;;;;;1.90;1.57;;;19.60;55.90;;;;;;5012559;28;20411;-68
2023/12/06 12:11:45;;;;;;;1.80;1.30;;;19.60;55.90;;;;;;5012562;28;20415;-68
2023/12/06 12:14:10;;;;;;;4.17;1.83;;;19.60;55.90;;;;;;5012708;28;21178;-69
2023/12/06 12:16:36;;;;;;;1.70;1.50;;;19.60;55.90;;;;;;5010933;28;20522;-68
2023/12/06 12:19:03;;;;;;;1.93;1.80;;;19.60;55.90;;;;;;5012218;28;20725;-68
2023/12/06 12:21:29;;;;;;;2.53;1.90;;;19.60;55.90;;;;;;5012273;28;20168;-68
2023/12/06 12:23:57;;;;;;;2.17;1.80;;;19.60;55.80;;;;;;5012478;28;20426;-68
2023/12/06 12:26:23;;;;;;;2.20;1.70;;;19.60;55.90;;;;;;5011947;28;20465;-68
2023/12/06 12:28:49;;;;;;;1.90;1.60;;;19.70;56.00;;;;;;5012146;28;20497;-68
2023/12/06 12:31:23;;;;;;;1.93;1.63;;;19.60;56.40;;;;;;5012134;28;20279;-68
2023/12/06 12:33:49;;;;;;;1.67;1.57;;;19.70;55.90;;;;;;5010677;28;20195;-67
2023/12/06 12:36:18;;;;;;;2.40;1.90;;;19.70;55.90;;;;;;5011950;28;21289;-68
2023/12/06 12:38:44;;;;;;;2.10;1.90;;;19.70;55.90;;;;;;5011908;28;20506;-68
2023/12/06 12:41:14;;;;;;;2.53;1.90;;;19.70;55.90;;;;;;5011886;28;20411;-67